sensor_id;sensor_type;location;lat;lon;timestamp;temperature;humidity
4376;DHT22;2202;50.866;12.750;2023-08-12T00:01:19;16.50;91.00
4376;DHT22;2202;50.866;12.750;2023-08-12T00:03:48;16.60;90.70
4376;DHT22;2202;50.866;12.750;2023-08-12T00:06:15;16.60;90.60
4376;DHT22;2202;50.866;12.750;2023-08-12T00:08:42;16.70;90.60
4376;DHT22;2202;50.866;12.750;2023-08-12T00:11:08;16.70;90.60
4376;DHT22;2202;50.866;12.750;2023-08-12T00:13:35;16.70;90.60
4376;DHT22;2202;50.866;12.750;2023-08-12T00:16:02;16.70;90.40
4376;DHT22;2202;50.866;12.750;2023-08-12T00:18:29;16.70;90.40
4376;DHT22;2202;50.866;12.750;2023-08-12T00:21:06;16.70;90.30
4376;DHT22;2202;50.866;12.750;2023-08-12T00:23:33;16.70;90.30
4376;DHT22;2202;50.866;12.750;2023-08-12T00:25:59;16.60;90.20
4376;DHT22;2202;50.866;12.750;2023-08-12T00:28:26;16.60;90.10
4376;DHT22;2202;50.866;12.750;2023-08-12T00:30:53;16.60;90.10
4376;DHT22;2202;50.866;12.750;2023-08-12T00:33:20;16.60;90.10
4376;DHT22;2202;50.866;12.750;2023-08-12T00:35:47;16.60;90.20
4376;DHT22;2202;50.866;12.750;2023-08-12T00:38:15;16.60;90.30
4376;DHT22;2202;50.866;12.750;2023-08-12T00:40:42;16.50;90.30
4376;DHT22;2202;50.866;12.750;2023-08-12T00:43:09;16.50;90.40
4376;DHT22;2202;50.866;12.750;2023-08-12T00:45:36;16.50;90.40
4376;DHT22;2202;50.866;12.750;2023-08-12T00:48:03;16.40;90.50
4376;DHT22;2202;50.866;12.750;2023-08-12T00:50:31;16.40;90.60
4376;DHT22;2202;50.866;12.750;2023-08-12T00:52:58;16.40;90.70
4376;DHT22;2202;50.866;12.750;2023-08-12T00:55:27;16.40;90.90
4376;DHT22;2202;50.866;12.750;2023-08-12T00:57:53;16.30;91.20
4376;DHT22;2202;50.866;12.750;2023-08-12T01:00:21;16.30;91.20
4376;DHT22;2202;50.866;12.750;2023-08-12T01:02:48;16.30;91.10
4376;DHT22;2202;50.866;12.750;2023-08-12T01:05:15;16.30;91.30
4376;DHT22;2202;50.866;12.750;2023-08-12T01:07:42;16.30;91.50
4376;DHT22;2202;50.866;12.750;2023-08-12T01:10:11;16.30;91.60
4376;DHT22;2202;50.866;12.750;2023-08-12T01:12:49;16.30;91.70
4376;DHT22;2202;50.866;12.750;2023-08-12T01:15:20;16.30;91.80
4376;DHT22;2202;50.866;12.750;2023-08-12T01:17:49;16.20;91.80
4376;DHT22;2202;50.866;12.750;2023-08-12T01:20:19;16.30;91.70
4376;DHT22;2202;50.866;12.750;2023-08-12T01:22:55;16.30;91.80
4376;DHT22;2202;50.866;12.750;2023-08-12T01:25:24;16.30;91.70
4376;DHT22;2202;50.866;12.750;2023-08-12T01:27:50;16.30;91.70
4376;DHT22;2202;50.866;12.750;2023-08-12T01:30:18;16.30;91.70
4376;DHT22;2202;50.866;12.750;2023-08-12T01:32:54;16.30;91.70
4376;DHT22;2202;50.866;12.750;2023-08-12T01:35:26;16.20;91.70
4376;DHT22;2202;50.866;12.750;2023-08-12T01:37:57;16.20;91.70
4376;DHT22;2202;50.866;12.750;2023-08-12T01:40:28;16.20;91.60
4376;DHT22;2202;50.866;12.750;2023-08-12T01:42:56;16.20;91.70
4376;DHT22;2202;50.866;12.750;2023-08-12T01:45:23;16.20;91.80
4376;DHT22;2202;50.866;12.750;2023-08-12T01:47:50;16.20;92.00
4376;DHT22;2202;50.866;12.750;2023-08-12T01:50:17;16.30;92.10
4376;DHT22;2202;50.866;12.750;2023-08-12T01:52:44;16.40;91.90
4376;DHT22;2202;50.866;12.750;2023-08-12T01:55:11;16.50;91.70
4376;DHT22;2202;50.866;12.750;2023-08-12T01:57:39;16.60;91.40
4376;DHT22;2202;50.866;12.750;2023-08-12T02:00:07;16.70;91.10
4376;DHT22;2202;50.866;12.750;2023-08-12T02:02:34;16.80;90.90
4376;DHT22;2202;50.866;12.750;2023-08-12T02:05:01;16.90;90.50
4376;DHT22;2202;50.866;12.750;2023-08-12T02:07:28;16.90;90.20
4376;DHT22;2202;50.866;12.750;2023-08-12T02:09:55;17.00;89.80
4376;DHT22;2202;50.866;12.750;2023-08-12T02:12:22;17.10;89.20
4376;DHT22;2202;50.866;12.750;2023-08-12T02:14:50;17.30;88.40
4376;DHT22;2202;50.866;12.750;2023-08-12T02:17:17;17.30;87.80
4376;DHT22;2202;50.866;12.750;2023-08-12T02:19:44;17.40;87.40
4376;DHT22;2202;50.866;12.750;2023-08-12T02:22:11;17.40;87.20
4376;DHT22;2202;50.866;12.750;2023-08-12T02:24:38;17.50;86.80
4376;DHT22;2202;50.866;12.750;2023-08-12T02:27:05;17.50;86.60
4376;DHT22;2202;50.866;12.750;2023-08-12T02:29:32;17.60;86.40
4376;DHT22;2202;50.866;12.750;2023-08-12T02:32:01;17.60;86.40
4376;DHT22;2202;50.866;12.750;2023-08-12T02:34:27;17.60;86.20
4376;DHT22;2202;50.866;12.750;2023-08-12T02:36:54;17.60;86.20
4376;DHT22;2202;50.866;12.750;2023-08-12T02:39:21;17.60;86.20
4376;DHT22;2202;50.866;12.750;2023-08-12T02:41:48;17.50;86.20
4376;DHT22;2202;50.866;12.750;2023-08-12T02:44:15;17.50;86.20
4376;DHT22;2202;50.866;12.750;2023-08-12T02:46:42;17.50;86.20
4376;DHT22;2202;50.866;12.750;2023-08-12T02:49:10;17.50;86.00
4376;DHT22;2202;50.866;12.750;2023-08-12T02:51:37;17.50;86.00
4376;DHT22;2202;50.866;12.750;2023-08-12T02:54:04;17.60;85.80
4376;DHT22;2202;50.866;12.750;2023-08-12T02:56:31;17.60;85.60
4376;DHT22;2202;50.866;12.750;2023-08-12T02:58:57;17.70;85.20
4376;DHT22;2202;50.866;12.750;2023-08-12T03:01:24;17.80;84.60
4376;DHT22;2202;50.866;12.750;2023-08-12T03:03:53;17.90;84.20
4376;DHT22;2202;50.866;12.750;2023-08-12T03:06:21;17.90;84.00
4376;DHT22;2202;50.866;12.750;2023-08-12T03:08:48;18.00;83.80
4376;DHT22;2202;50.866;12.750;2023-08-12T03:11:15;18.00;83.20
4376;DHT22;2202;50.866;12.750;2023-08-12T03:13:43;18.10;83.00
4376;DHT22;2202;50.866;12.750;2023-08-12T03:16:11;18.10;82.80
4376;DHT22;2202;50.866;12.750;2023-08-12T03:18:38;18.10;82.80
4376;DHT22;2202;50.866;12.750;2023-08-12T03:21:06;18.10;82.60
4376;DHT22;2202;50.866;12.750;2023-08-12T03:23:35;18.10;82.60
4376;DHT22;2202;50.866;12.750;2023-08-12T03:26:02;18.10;82.40
4376;DHT22;2202;50.866;12.750;2023-08-12T03:28:30;18.20;82.00
4376;DHT22;2202;50.866;12.750;2023-08-12T03:30:56;18.20;81.80
4376;DHT22;2202;50.866;12.750;2023-08-12T03:33:23;18.30;81.60
4376;DHT22;2202;50.866;12.750;2023-08-12T03:35:50;18.30;81.20
4376;DHT22;2202;50.866;12.750;2023-08-12T03:38:17;18.40;81.20
4376;DHT22;2202;50.866;12.750;2023-08-12T03:40:45;18.40;81.20
4376;DHT22;2202;50.866;12.750;2023-08-12T03:43:12;18.40;81.00
4376;DHT22;2202;50.866;12.750;2023-08-12T03:45:42;18.40;81.00
4376;DHT22;2202;50.866;12.750;2023-08-12T03:48:10;18.40;80.80
4376;DHT22;2202;50.866;12.750;2023-08-12T03:50:38;18.50;80.40
4376;DHT22;2202;50.866;12.750;2023-08-12T03:53:05;18.50;80.40
4376;DHT22;2202;50.866;12.750;2023-08-12T03:55:32;18.50;80.00
4376;DHT22;2202;50.866;12.750;2023-08-12T03:58:00;18.50;80.00
4376;DHT22;2202;50.866;12.750;2023-08-12T04:00:28;18.50;80.00
4376;DHT22;2202;50.866;12.750;2023-08-12T04:02:55;18.50;80.00
4376;DHT22;2202;50.866;12.750;2023-08-12T04:05:21;18.60;80.00
4376;DHT22;2202;50.866;12.750;2023-08-12T04:07:48;18.60;80.00
4376;DHT22;2202;50.866;12.750;2023-08-12T04:10:15;18.60;79.40
4376;DHT22;2202;50.866;12.750;2023-08-12T04:12:42;18.70;78.60
4376;DHT22;2202;50.866;12.750;2023-08-12T04:15:11;18.80;78.40
4376;DHT22;2202;50.866;12.750;2023-08-12T04:17:38;18.90;78.00
4376;DHT22;2202;50.866;12.750;2023-08-12T04:20:07;19.00;77.40
4376;DHT22;2202;50.866;12.750;2023-08-12T04:22:34;19.00;77.00
4376;DHT22;2202;50.866;12.750;2023-08-12T04:25:01;19.10;76.60
4376;DHT22;2202;50.866;12.750;2023-08-12T04:27:28;19.20;76.80
4376;DHT22;2202;50.866;12.750;2023-08-12T04:29:55;19.20;76.60
4376;DHT22;2202;50.866;12.750;2023-08-12T04:32:23;19.30;75.60
4376;DHT22;2202;50.866;12.750;2023-08-12T04:34:50;19.40;75.60
4376;DHT22;2202;50.866;12.750;2023-08-12T04:37:17;19.50;75.60
4376;DHT22;2202;50.866;12.750;2023-08-12T04:39:44;19.50;75.20
4376;DHT22;2202;50.866;12.750;2023-08-12T04:42:11;19.60;75.20
4376;DHT22;2202;50.866;12.750;2023-08-12T04:44:38;19.60;74.80
4376;DHT22;2202;50.866;12.750;2023-08-12T04:47:05;19.70;74.80
4376;DHT22;2202;50.866;12.750;2023-08-12T04:49:33;19.70;74.60
4376;DHT22;2202;50.866;12.750;2023-08-12T04:52:00;19.80;74.40
4376;DHT22;2202;50.866;12.750;2023-08-12T04:54:27;19.80;74.40
4376;DHT22;2202;50.866;12.750;2023-08-12T04:56:54;19.80;74.40
4376;DHT22;2202;50.866;12.750;2023-08-12T04:59:21;19.80;74.20
4376;DHT22;2202;50.866;12.750;2023-08-12T05:01:48;19.90;74.80
4376;DHT22;2202;50.866;12.750;2023-08-12T05:04:15;19.90;74.00
4376;DHT22;2202;50.866;12.750;2023-08-12T05:06:43;19.90;74.60
4376;DHT22;2202;50.866;12.750;2023-08-12T05:09:11;19.90;74.60
4376;DHT22;2202;50.866;12.750;2023-08-12T05:11:38;19.90;74.40
4376;DHT22;2202;50.866;12.750;2023-08-12T05:14:05;19.90;74.00
4376;DHT22;2202;50.866;12.750;2023-08-12T05:16:31;20.00;74.00
4376;DHT22;2202;50.866;12.750;2023-08-12T05:18:58;20.00;73.20
4376;DHT22;2202;50.866;12.750;2023-08-12T05:21:25;20.10;73.60
4376;DHT22;2202;50.866;12.750;2023-08-12T05:23:53;20.10;74.00
4376;DHT22;2202;50.866;12.750;2023-08-12T05:26:20;20.20;73.00
4376;DHT22;2202;50.866;12.750;2023-08-12T05:28:47;20.20;72.80
4376;DHT22;2202;50.866;12.750;2023-08-12T05:31:14;20.30;72.60
4376;DHT22;2202;50.866;12.750;2023-08-12T05:33:41;20.30;72.80
4376;DHT22;2202;50.866;12.750;2023-08-12T05:36:08;20.30;72.40
4376;DHT22;2202;50.866;12.750;2023-08-12T05:38:35;20.40;72.60
4376;DHT22;2202;50.866;12.750;2023-08-12T05:41:03;20.40;72.20
4376;DHT22;2202;50.866;12.750;2023-08-12T05:43:32;20.50;71.60
4376;DHT22;2202;50.866;12.750;2023-08-12T05:45:59;20.70;71.40
4376;DHT22;2202;50.866;12.750;2023-08-12T05:48:26;20.80;71.20
4376;DHT22;2202;50.866;12.750;2023-08-12T05:50:53;21.00;71.20
4376;DHT22;2202;50.866;12.750;2023-08-12T05:53:21;21.10;70.00
4376;DHT22;2202;50.866;12.750;2023-08-12T05:55:48;21.40;69.60
4376;DHT22;2202;50.866;12.750;2023-08-12T05:58:17;21.60;69.20
4376;DHT22;2202;50.866;12.750;2023-08-12T06:00:44;21.90;68.20
4376;DHT22;2202;50.866;12.750;2023-08-12T06:03:11;22.10;67.40
4376;DHT22;2202;50.866;12.750;2023-08-12T06:05:39;22.30;67.60
4376;DHT22;2202;50.866;12.750;2023-08-12T06:08:06;22.40;65.00
4376;DHT22;2202;50.866;12.750;2023-08-12T06:10:33;22.50;63.60
4376;DHT22;2202;50.866;12.750;2023-08-12T06:13:00;22.50;64.00
4376;DHT22;2202;50.866;12.750;2023-08-12T06:15:29;22.60;63.60
4376;DHT22;2202;50.866;12.750;2023-08-12T06:17:56;22.60;63.80
4376;DHT22;2202;50.866;12.750;2023-08-12T06:20:23;22.70;64.40
4376;DHT22;2202;50.866;12.750;2023-08-12T06:22:50;22.70;65.00
4376;DHT22;2202;50.866;12.750;2023-08-12T06:25:17;22.80;64.20
4376;DHT22;2202;50.866;12.750;2023-08-12T06:27:44;22.80;63.40
4376;DHT22;2202;50.866;12.750;2023-08-12T06:30:12;22.90;64.80
4376;DHT22;2202;50.866;12.750;2023-08-12T06:32:40;22.90;63.60
4376;DHT22;2202;50.866;12.750;2023-08-12T06:35:08;23.00;63.80
4376;DHT22;2202;50.866;12.750;2023-08-12T06:37:35;23.00;63.60
4376;DHT22;2202;50.866;12.750;2023-08-12T06:40:03;23.10;63.60
4376;DHT22;2202;50.866;12.750;2023-08-12T06:42:30;23.10;63.00
4376;DHT22;2202;50.866;12.750;2023-08-12T06:44:58;23.10;62.80
4376;DHT22;2202;50.866;12.750;2023-08-12T06:47:25;23.10;62.80
4376;DHT22;2202;50.866;12.750;2023-08-12T06:49:55;23.20;62.00
4376;DHT22;2202;50.866;12.750;2023-08-12T06:52:22;23.30;63.20
4376;DHT22;2202;50.866;12.750;2023-08-12T06:54:49;23.30;62.80
4376;DHT22;2202;50.866;12.750;2023-08-12T06:57:16;23.40;64.00
4376;DHT22;2202;50.866;12.750;2023-08-12T06:59:43;23.50;63.60
4376;DHT22;2202;50.866;12.750;2023-08-12T07:02:09;23.60;63.80
4376;DHT22;2202;50.866;12.750;2023-08-12T07:04:36;23.80;64.40
4376;DHT22;2202;50.866;12.750;2023-08-12T07:07:04;23.90;63.60
4376;DHT22;2202;50.866;12.750;2023-08-12T07:09:31;24.10;63.80
4376;DHT22;2202;50.866;12.750;2023-08-12T07:11:58;24.40;64.20
4376;DHT22;2202;50.866;12.750;2023-08-12T07:14:26;24.70;61.00
4376;DHT22;2202;50.866;12.750;2023-08-12T07:16:53;24.80;59.60
4376;DHT22;2202;50.866;12.750;2023-08-12T07:19:20;24.90;61.00
4376;DHT22;2202;50.866;12.750;2023-08-12T07:21:47;25.40;59.60
4376;DHT22;2202;50.866;12.750;2023-08-12T07:24:15;25.90;59.00
4376;DHT22;2202;50.866;12.750;2023-08-12T07:26:42;26.50;56.00
4376;DHT22;2202;50.866;12.750;2023-08-12T07:29:09;27.10;50.90
4376;DHT22;2202;50.866;12.750;2023-08-12T07:31:36;27.30;49.60
4376;DHT22;2202;50.866;12.750;2023-08-12T07:34:03;27.70;50.90
4376;DHT22;2202;50.866;12.750;2023-08-12T07:36:30;27.90;47.90
4376;DHT22;2202;50.866;12.750;2023-08-12T07:38:58;28.00;49.30
4376;DHT22;2202;50.866;12.750;2023-08-12T07:41:26;27.90;48.20
4376;DHT22;2202;50.866;12.750;2023-08-12T07:43:53;28.00;48.00
4376;DHT22;2202;50.866;12.750;2023-08-12T07:46:20;28.00;46.40
4376;DHT22;2202;50.866;12.750;2023-08-12T07:48:47;28.10;48.20
4376;DHT22;2202;50.866;12.750;2023-08-12T07:51:14;28.30;45.40
4376;DHT22;2202;50.866;12.750;2023-08-12T07:53:41;28.50;47.00
4376;DHT22;2202;50.866;12.750;2023-08-12T07:56:08;28.40;47.50
4376;DHT22;2202;50.866;12.750;2023-08-12T07:58:36;28.50;47.20
4376;DHT22;2202;50.866;12.750;2023-08-12T08:01:03;28.60;46.10
4376;DHT22;2202;50.866;12.750;2023-08-12T08:03:30;28.50;47.00
4376;DHT22;2202;50.866;12.750;2023-08-12T08:05:57;28.30;47.50
4376;DHT22;2202;50.866;12.750;2023-08-12T08:08:24;28.50;49.80
4376;DHT22;2202;50.866;12.750;2023-08-12T08:10:51;29.10;47.50
4376;DHT22;2202;50.866;12.750;2023-08-12T08:13:17;29.40;45.00
4376;DHT22;2202;50.866;12.750;2023-08-12T08:15:46;29.00;44.30
4376;DHT22;2202;50.866;12.750;2023-08-12T08:18:13;28.30;48.20
4376;DHT22;2202;50.866;12.750;2023-08-12T08:20:41;28.00;48.40
4376;DHT22;2202;50.866;12.750;2023-08-12T08:23:08;27.90;50.00
4376;DHT22;2202;50.866;12.750;2023-08-12T08:25:35;28.00;51.20
4376;DHT22;2202;50.866;12.750;2023-08-12T08:28:02;28.10;49.50
4376;DHT22;2202;50.866;12.750;2023-08-12T08:30:29;28.10;47.50
4376;DHT22;2202;50.866;12.750;2023-08-12T08:32:58;28.20;47.70
4376;DHT22;2202;50.866;12.750;2023-08-12T08:35:24;28.10;49.50
4376;DHT22;2202;50.866;12.750;2023-08-12T08:37:52;28.00;48.60
4376;DHT22;2202;50.866;12.750;2023-08-12T08:40:19;27.80;48.20
4376;DHT22;2202;50.866;12.750;2023-08-12T08:42:47;27.50;53.40
4376;DHT22;2202;50.866;12.750;2023-08-12T08:45:16;27.30;51.10
4376;DHT22;2202;50.866;12.750;2023-08-12T08:47:45;27.10;54.30
4376;DHT22;2202;50.866;12.750;2023-08-12T08:50:15;27.10;56.00
4376;DHT22;2202;50.866;12.750;2023-08-12T08:52:42;27.30;55.90
4376;DHT22;2202;50.866;12.750;2023-08-12T08:55:10;27.50;56.00
4376;DHT22;2202;50.866;12.750;2023-08-12T08:57:38;27.50;54.60
4376;DHT22;2202;50.866;12.750;2023-08-12T09:00:07;27.50;53.00
4376;DHT22;2202;50.866;12.750;2023-08-12T09:02:35;27.50;54.10
4376;DHT22;2202;50.866;12.750;2023-08-12T09:05:03;27.20;54.30
4376;DHT22;2202;50.866;12.750;2023-08-12T09:07:32;26.90;54.60
4376;DHT22;2202;50.866;12.750;2023-08-12T09:10:01;26.80;55.10
4376;DHT22;2202;50.866;12.750;2023-08-12T09:12:30;26.80;56.90
4376;DHT22;2202;50.866;12.750;2023-08-12T09:14:57;26.90;54.40
4376;DHT22;2202;50.866;12.750;2023-08-12T09:17:24;27.00;54.40
4376;DHT22;2202;50.866;12.750;2023-08-12T09:19:51;27.20;51.80
4376;DHT22;2202;50.866;12.750;2023-08-12T09:22:18;27.30;50.20
4376;DHT22;2202;50.866;12.750;2023-08-12T09:24:49;27.60;51.60
4376;DHT22;2202;50.866;12.750;2023-08-12T09:27:18;27.80;50.30
4376;DHT22;2202;50.866;12.750;2023-08-12T09:29:45;28.00;52.50
4376;DHT22;2202;50.866;12.750;2023-08-12T09:32:13;28.20;50.20
4376;DHT22;2202;50.866;12.750;2023-08-12T09:34:47;28.20;49.60
4376;DHT22;2202;50.866;12.750;2023-08-12T09:37:15;28.30;50.90
4376;DHT22;2202;50.866;12.750;2023-08-12T09:39:42;28.20;50.20
4376;DHT22;2202;50.866;12.750;2023-08-12T09:42:10;28.30;49.50
4376;DHT22;2202;50.866;12.750;2023-08-12T09:44:38;28.40;47.70
4376;DHT22;2202;50.866;12.750;2023-08-12T09:47:06;28.30;49.60
4376;DHT22;2202;50.866;12.750;2023-08-12T09:49:33;28.30;48.20
4376;DHT22;2202;50.866;12.750;2023-08-12T09:52:01;28.20;48.80
4376;DHT22;2202;50.866;12.750;2023-08-12T09:54:31;28.20;47.90
4376;DHT22;2202;50.866;12.750;2023-08-12T09:56:59;28.10;51.60
4376;DHT22;2202;50.866;12.750;2023-08-12T09:59:31;27.90;50.90
4376;DHT22;2202;50.866;12.750;2023-08-12T10:02:00;27.90;52.70
4376;DHT22;2202;50.866;12.750;2023-08-12T10:04:35;27.90;48.60
4376;DHT22;2202;50.866;12.750;2023-08-12T10:07:02;27.90;51.80
4376;DHT22;2202;50.866;12.750;2023-08-12T10:09:30;28.00;50.00
4376;DHT22;2202;50.866;12.750;2023-08-12T10:11:58;27.60;52.70
4376;DHT22;2202;50.866;12.750;2023-08-12T10:14:25;27.60;48.90
4376;DHT22;2202;50.866;12.750;2023-08-12T10:16:55;27.60;48.40
4376;DHT22;2202;50.866;12.750;2023-08-12T10:19:23;27.80;47.30
4376;DHT22;2202;50.866;12.750;2023-08-12T10:21:55;27.70;48.80
4376;DHT22;2202;50.866;12.750;2023-08-12T10:24:23;27.70;47.70
4376;DHT22;2202;50.866;12.750;2023-08-12T10:26:51;27.70;46.10
4376;DHT22;2202;50.866;12.750;2023-08-12T10:29:18;27.70;48.80
4376;DHT22;2202;50.866;12.750;2023-08-12T10:31:46;27.70;47.50
4376;DHT22;2202;50.866;12.750;2023-08-12T10:34:20;27.60;45.90
4376;DHT22;2202;50.866;12.750;2023-08-12T10:36:47;27.60;47.90
4376;DHT22;2202;50.866;12.750;2023-08-12T10:39:14;27.80;46.40
4376;DHT22;2202;50.866;12.750;2023-08-12T10:41:50;27.80;48.40
4376;DHT22;2202;50.866;12.750;2023-08-12T10:44:20;27.80;47.30
4376;DHT22;2202;50.866;12.750;2023-08-12T10:46:51;27.80;51.20
4376;DHT22;2202;50.866;12.750;2023-08-12T10:49:21;27.60;48.90
4376;DHT22;2202;50.866;12.750;2023-08-12T10:51:49;27.50;45.60
4376;DHT22;2202;50.866;12.750;2023-08-12T10:54:18;27.70;50.20
4376;DHT22;2202;50.866;12.750;2023-08-12T10:57:08;27.80;44.80
4376;DHT22;2202;50.866;12.750;2023-08-12T10:59:57;27.90;47.00
4376;DHT22;2202;50.866;12.750;2023-08-12T11:02:28;28.10;47.90
4376;DHT22;2202;50.866;12.750;2023-08-12T11:04:57;28.20;46.30
4376;DHT22;2202;50.866;12.750;2023-08-12T11:07:32;28.10;45.60
4376;DHT22;2202;50.866;12.750;2023-08-12T11:10:03;28.20;45.00
4376;DHT22;2202;50.866;12.750;2023-08-12T11:12:31;28.20;42.90
4376;DHT22;2202;50.866;12.750;2023-08-12T11:15:01;28.30;42.00
4376;DHT22;2202;50.866;12.750;2023-08-12T11:17:33;28.00;42.00
4376;DHT22;2202;50.866;12.750;2023-08-12T11:20:03;28.00;40.90
4376;DHT22;2202;50.866;12.750;2023-08-12T11:22:35;28.10;40.20
4376;DHT22;2202;50.866;12.750;2023-08-12T11:25:04;28.00;42.20
4376;DHT22;2202;50.866;12.750;2023-08-12T11:27:40;27.80;41.50
4376;DHT22;2202;50.866;12.750;2023-08-12T11:30:08;27.60;40.80
4376;DHT22;2202;50.866;12.750;2023-08-12T11:32:36;27.40;42.20
4376;DHT22;2202;50.866;12.750;2023-08-12T11:35:06;27.40;44.00
4376;DHT22;2202;50.866;12.750;2023-08-12T11:37:35;27.30;43.60
4376;DHT22;2202;50.866;12.750;2023-08-12T11:40:02;27.30;43.10
4376;DHT22;2202;50.866;12.750;2023-08-12T11:42:29;27.30;41.80
4376;DHT22;2202;50.866;12.750;2023-08-12T11:44:56;27.30;44.10
4376;DHT22;2202;50.866;12.750;2023-08-12T11:47:23;27.30;43.60
4376;DHT22;2202;50.866;12.750;2023-08-12T11:49:52;27.10;44.10
4376;DHT22;2202;50.866;12.750;2023-08-12T11:52:20;27.10;44.10
4376;DHT22;2202;50.866;12.750;2023-08-12T11:54:49;27.10;43.40
4376;DHT22;2202;50.866;12.750;2023-08-12T11:57:16;27.00;45.40
4376;DHT22;2202;50.866;12.750;2023-08-12T11:59:43;26.90;44.50
4376;DHT22;2202;50.866;12.750;2023-08-12T12:02:11;27.00;47.30
4376;DHT22;2202;50.866;12.750;2023-08-12T12:04:39;27.10;48.20
4376;DHT22;2202;50.866;12.750;2023-08-12T12:07:17;27.20;52.10
4376;DHT22;2202;50.866;12.750;2023-08-12T12:09:45;27.00;51.20
4376;DHT22;2202;50.866;12.750;2023-08-12T12:12:13;27.10;52.10
4376;DHT22;2202;50.866;12.750;2023-08-12T12:14:40;27.10;46.30
4376;DHT22;2202;50.866;12.750;2023-08-12T12:17:07;27.30;50.20
4376;DHT22;2202;50.866;12.750;2023-08-12T12:19:36;27.70;47.30
4376;DHT22;2202;50.866;12.750;2023-08-12T12:22:03;27.90;44.80
4376;DHT22;2202;50.866;12.750;2023-08-12T12:24:31;28.10;44.70
4376;DHT22;2202;50.866;12.750;2023-08-12T12:27:00;28.40;43.60
4376;DHT22;2202;50.866;12.750;2023-08-12T12:29:26;28.80;42.50
4376;DHT22;2202;50.866;12.750;2023-08-12T12:31:53;28.90;41.30
4376;DHT22;2202;50.866;12.750;2023-08-12T12:34:20;29.10;37.40
4376;DHT22;2202;50.866;12.750;2023-08-12T12:36:48;29.20;37.70
4376;DHT22;2202;50.866;12.750;2023-08-12T12:39:15;29.10;36.10
4376;DHT22;2202;50.866;12.750;2023-08-12T12:41:42;29.00;38.80
4376;DHT22;2202;50.866;12.750;2023-08-12T12:44:10;29.20;39.30
4376;DHT22;2202;50.866;12.750;2023-08-12T12:46:37;29.30;36.50
4376;DHT22;2202;50.866;12.750;2023-08-12T12:49:04;29.40;37.70
4376;DHT22;2202;50.866;12.750;2023-08-12T12:51:32;29.70;41.30
4376;DHT22;2202;50.866;12.750;2023-08-12T12:53:58;29.90;36.70
4376;DHT22;2202;50.866;12.750;2023-08-12T12:56:25;30.20;36.70
4376;DHT22;2202;50.866;12.750;2023-08-12T12:58:52;30.50;36.00
4376;DHT22;2202;50.866;12.750;2023-08-12T13:01:20;30.90;35.80
4376;DHT22;2202;50.866;12.750;2023-08-12T13:03:47;31.20;35.30
4376;DHT22;2202;50.866;12.750;2023-08-12T13:06:14;31.10;33.30
4376;DHT22;2202;50.866;12.750;2023-08-12T13:08:41;30.50;35.80
4376;DHT22;2202;50.866;12.750;2023-08-12T13:11:08;30.60;37.20
4376;DHT22;2202;50.866;12.750;2023-08-12T13:13:35;30.60;36.00
4376;DHT22;2202;50.866;12.750;2023-08-12T13:16:01;30.80;39.00
4376;DHT22;2202;50.866;12.750;2023-08-12T13:18:30;31.10;35.30
4376;DHT22;2202;50.866;12.750;2023-08-12T13:20:57;31.60;32.20
4376;DHT22;2202;50.866;12.750;2023-08-12T13:23:24;31.60;32.10
4376;DHT22;2202;50.866;12.750;2023-08-12T13:25:51;31.60;33.50
4376;DHT22;2202;50.866;12.750;2023-08-12T13:28:18;31.80;33.50
4376;DHT22;2202;50.866;12.750;2023-08-12T13:30:45;31.80;33.10
4376;DHT22;2202;50.866;12.750;2023-08-12T13:33:12;32.00;32.20
4376;DHT22;2202;50.866;12.750;2023-08-12T13:35:40;32.20;32.20
4376;DHT22;2202;50.866;12.750;2023-08-12T13:38:07;31.80;33.10
4376;DHT22;2202;50.866;12.750;2023-08-12T13:40:34;32.00;33.30
4376;DHT22;2202;50.866;12.750;2023-08-12T13:43:01;31.60;34.20
4376;DHT22;2202;50.866;12.750;2023-08-12T13:45:28;31.20;32.40
4376;DHT22;2202;50.866;12.750;2023-08-12T13:47:55;30.80;36.00
4376;DHT22;2202;50.866;12.750;2023-08-12T13:50:22;30.40;39.90
4376;DHT22;2202;50.866;12.750;2023-08-12T13:52:50;30.40;37.70
4376;DHT22;2202;50.866;12.750;2023-08-12T13:55:17;30.30;38.80
4376;DHT22;2202;50.866;12.750;2023-08-12T13:57:44;30.00;40.20
4376;DHT22;2202;50.866;12.750;2023-08-12T14:00:11;29.50;39.50
4376;DHT22;2202;50.866;12.750;2023-08-12T14:02:40;29.10;39.30
4376;DHT22;2202;50.866;12.750;2023-08-12T14:05:07;29.00;38.50
4376;DHT22;2202;50.866;12.750;2023-08-12T14:07:35;28.90;40.80
4376;DHT22;2202;50.866;12.750;2023-08-12T14:10:04;28.90;44.00
4376;DHT22;2202;50.866;12.750;2023-08-12T14:12:31;29.00;41.70
4376;DHT22;2202;50.866;12.750;2023-08-12T14:14:59;29.10;44.80
4376;DHT22;2202;50.866;12.750;2023-08-12T14:17:25;29.30;41.70
4376;DHT22;2202;50.866;12.750;2023-08-12T14:19:52;29.50;37.60
4376;DHT22;2202;50.866;12.750;2023-08-12T14:22:20;29.90;36.50
4376;DHT22;2202;50.866;12.750;2023-08-12T14:24:47;30.10;38.80
4376;DHT22;2202;50.866;12.750;2023-08-12T14:27:16;30.10;37.40
4376;DHT22;2202;50.866;12.750;2023-08-12T14:29:44;30.10;36.10
4376;DHT22;2202;50.866;12.750;2023-08-12T14:32:11;30.20;37.20
4376;DHT22;2202;50.866;12.750;2023-08-12T14:34:38;29.90;37.40
4376;DHT22;2202;50.866;12.750;2023-08-12T14:37:05;29.90;37.70
4376;DHT22;2202;50.866;12.750;2023-08-12T14:39:36;30.00;37.60
4376;DHT22;2202;50.866;12.750;2023-08-12T14:42:04;30.00;36.90
4376;DHT22;2202;50.866;12.750;2023-08-12T14:44:32;29.70;36.10
4376;DHT22;2202;50.866;12.750;2023-08-12T14:47:00;29.50;38.10
4376;DHT22;2202;50.866;12.750;2023-08-12T14:49:27;29.40;38.10
4376;DHT22;2202;50.866;12.750;2023-08-12T14:51:55;29.50;41.80
4376;DHT22;2202;50.866;12.750;2023-08-12T14:54:22;29.60;39.00
4376;DHT22;2202;50.866;12.750;2023-08-12T14:56:49;29.80;39.20
4376;DHT22;2202;50.866;12.750;2023-08-12T14:59:16;29.80;42.40
4376;DHT22;2202;50.866;12.750;2023-08-12T15:01:44;29.60;37.70
4376;DHT22;2202;50.866;12.750;2023-08-12T15:04:11;29.60;38.60
4376;DHT22;2202;50.866;12.750;2023-08-12T15:06:38;29.70;41.10
4376;DHT22;2202;50.866;12.750;2023-08-12T15:09:05;29.60;42.20
4376;DHT22;2202;50.866;12.750;2023-08-12T15:11:31;29.50;41.80
4376;DHT22;2202;50.866;12.750;2023-08-12T15:13:58;29.30;41.30
4376;DHT22;2202;50.866;12.750;2023-08-12T15:16:25;29.00;43.60
4376;DHT22;2202;50.866;12.750;2023-08-12T15:18:53;28.80;46.80
4376;DHT22;2202;50.866;12.750;2023-08-12T15:21:20;28.80;45.70
4376;DHT22;2202;50.866;12.750;2023-08-12T15:23:47;28.90;46.40
4376;DHT22;2202;50.866;12.750;2023-08-12T15:26:14;28.80;46.30
4376;DHT22;2202;50.866;12.750;2023-08-12T15:28:41;28.70;49.10
4376;DHT22;2202;50.866;12.750;2023-08-12T15:31:08;28.80;48.40
4376;DHT22;2202;50.866;12.750;2023-08-12T15:33:35;28.70;49.60
4376;DHT22;2202;50.866;12.750;2023-08-12T15:36:04;28.60;51.20
4376;DHT22;2202;50.866;12.750;2023-08-12T15:38:30;28.50;49.80
4376;DHT22;2202;50.866;12.750;2023-08-12T15:40:59;28.40;48.00
4376;DHT22;2202;50.866;12.750;2023-08-12T15:43:26;26.90;53.70
4376;DHT22;2202;50.866;12.750;2023-08-12T15:45:53;25.50;63.60
4376;DHT22;2202;50.866;12.750;2023-08-12T15:48:19;24.20;73.00